createdAt,value
2022-12-06T00:07:52.102Z,91593.61
2022-12-06T00:16:16.136Z,91594.29
2022-12-06T00:24:37.890Z,91582.73
2022-12-06T00:32:59.317Z,91581.33
2022-12-06T00:41:23.375Z,91601.65
2022-12-06T00:49:44.964Z,91629.59
2022-12-06T00:58:06.657Z,91613.36
2022-12-06T01:06:31.495Z,91592.60
2022-12-06T01:14:53.037Z,91579.50
2022-12-06T01:23:15.037Z,91577.75
2022-12-06T01:31:38.931Z,91550.83
2022-12-06T01:40:01.261Z,91516.36
2022-12-06T01:48:25.919Z,91510.02
2022-12-06T01:56:49.563Z,91523.92
2022-12-06T02:05:12.531Z,91549.33
2022-12-06T02:13:35.857Z,91547.88
2022-12-06T02:22:37.774Z,91516.84
2022-12-06T02:31:06.577Z,91507.32
2022-12-06T02:39:57.033Z,91486.98
2022-12-06T02:48:21.635Z,91475.63
2022-12-06T02:56:43.059Z,91472.98
2022-12-06T03:05:14.532Z,91468.52
2022-12-06T03:13:58.571Z,91451.67
2022-12-06T03:22:44.317Z,91472.20
2022-12-06T03:31:11.343Z,91508.10
2022-12-06T03:40:07.430Z,91522.92
2022-12-06T03:48:34.247Z,91509.67
2022-12-06T03:56:55.793Z,91515.16
2022-12-06T04:05:18.266Z,91533.45
2022-12-06T04:13:40.264Z,91526.13
2022-12-06T04:22:40.404Z,91487.53
2022-12-06T04:31:22.466Z,91483.74
2022-12-06T04:39:44.618Z,91496.79
2022-12-06T04:48:06.113Z,91478.25
2022-12-06T04:56:27.983Z,91483.99
2022-12-06T05:04:49.420Z,91511.25
2022-12-06T05:13:10.927Z,91528.00
2022-12-06T05:21:33.767Z,91513.27
2022-12-06T05:29:55.196Z,91477.21
2022-12-06T05:38:18.021Z,91469.90
2022-12-06T05:46:39.500Z,91485.55
2022-12-06T05:55:00.971Z,91508.51
2022-12-06T06:03:22.503Z,91492.65
2022-12-06T06:11:43.997Z,91476.34
2022-12-06T06:20:07.583Z,91499.27
2022-12-06T06:28:29.041Z,91511.20
2022-12-06T06:36:51.024Z,91495.34
2022-12-06T06:45:13.361Z,91517.16
2022-12-06T06:53:35.823Z,91534.84
2022-12-06T07:01:57.492Z,91551.01
2022-12-06T07:10:19.362Z,91540.39
2022-12-06T07:18:44.278Z,91522.28
2022-12-06T07:27:05.807Z,91522.13
2022-12-06T07:35:42.334Z,91548.00
2022-12-06T07:44:29.795Z,91580.13
2022-12-06T07:52:51.384Z,91583.98
2022-12-06T08:01:13.183Z,91599.00
2022-12-06T08:09:34.659Z,91624.73
2022-12-06T08:17:56.125Z,91651.50
2022-12-06T08:26:18.148Z,91691.91
2022-12-06T08:34:39.899Z,91709.34
2022-12-06T08:43:01.869Z,91708.27
2022-12-06T08:51:23.903Z,91723.37
2022-12-06T08:59:46.291Z,91752.90
2022-12-06T09:08:07.869Z,91779.21
2022-12-06T09:16:30.043Z,91800.09
2022-12-06T09:24:51.809Z,91805.64
2022-12-06T09:33:13.242Z,91831.17
2022-12-06T09:42:16.512Z,91854.29
2022-12-06T09:50:53.195Z,91875.43
2022-12-06T09:59:36.952Z,91879.05
2022-12-06T10:08:10.784Z,91887.73
2022-12-06T10:16:49.845Z,91913.19
2022-12-06T10:25:31.618Z,91931.73
2022-12-06T10:34:02.200Z,91939.32
2022-12-06T10:42:32.261Z,91963.33
2022-12-06T10:51:02.543Z,91968.66
2022-12-06T10:59:51.141Z,91966.65
2022-12-06T11:08:32.792Z,91974.91
2022-12-06T11:17:15.452Z,92029.70
2022-12-06T11:26:20.425Z,92080.23
2022-12-06T11:34:49.536Z,92095.48
2022-12-06T11:43:24.304Z,92129.92
2022-12-06T11:51:45.860Z,92162.61
2022-12-06T12:00:15.836Z,92183.84
2022-12-06T12:08:37.564Z,92171.71
2022-12-06T12:17:01.786Z,92178.52
2022-12-06T12:25:29.519Z,92201.46
2022-12-06T12:34:13.922Z,92230.72
2022-12-06T12:42:39.512Z,92230.09
2022-12-06T12:51:09.371Z,92213.14
2022-12-06T12:59:37.342Z,92214.09
2022-12-06T13:08:21.820Z,92202.36
2022-12-06T13:16:45.398Z,92196.73
2022-12-06T13:25:07.798Z,92198.02
2022-12-06T13:33:35.689Z,92206.29
2022-12-06T13:42:18.767Z,92221.50
2022-12-06T13:50:40.295Z,92223.31
2022-12-06T13:59:24.993Z,92206.51
2022-12-06T14:07:47.052Z,92203.12
2022-12-06T14:16:14.651Z,92195.73
2022-12-06T14:24:40.274Z,92162.81
2022-12-06T14:33:16.478Z,92156.95
2022-12-06T14:41:57.521Z,92174.17
2022-12-06T14:50:30.187Z,92193.81
2022-12-06T14:58:56.304Z,92190.73
2022-12-06T15:07:42.434Z,92185.89
2022-12-06T15:16:07.613Z,92175.00
2022-12-06T15:24:30.984Z,92170.60
2022-12-06T15:32:54.379Z,92154.25
2022-12-06T15:41:25.296Z,92146.48
2022-12-06T15:49:48.844Z,92160.47
2022-12-06T15:58:13.886Z,92179.77
2022-12-06T16:06:37.302Z,92185.14
2022-12-06T16:15:00.413Z,92161.15
2022-12-06T16:32:26.816Z,92156.83
2022-12-06T16:40:48.452Z,92156.92
2022-12-06T16:58:02.945Z,92082.54
2022-12-06T17:06:26.355Z,92078.36
2022-12-06T17:14:48.050Z,92074.48
2022-12-06T17:23:09.833Z,92075.15
2022-12-06T17:31:31.492Z,92078.64
2022-12-06T17:39:53.095Z,92082.93
2022-12-06T17:48:14.582Z,92113.38
2022-12-06T17:56:47.372Z,92130.70
2022-12-06T18:05:09.218Z,92120.44
2022-12-06T18:13:30.863Z,92118.63
2022-12-06T18:21:52.512Z,92139.45
2022-12-06T18:30:15.308Z,92149.52
2022-12-06T18:38:37.100Z,92129.96
2022-12-06T18:46:59.094Z,92138.13
2022-12-06T18:55:20.671Z,92160.65
2022-12-06T19:03:42.801Z,92157.42
2022-12-06T19:12:05.855Z,92129.25
2022-12-06T19:20:27.874Z,92121.38
2022-12-06T19:28:50.320Z,92133.35
2022-12-06T19:37:11.863Z,92133.14
2022-12-06T19:45:33.316Z,92112.73
2022-12-06T19:53:57.739Z,92120.07
2022-12-06T20:02:19.395Z,92140.52
2022-12-06T20:10:43.435Z,92134.42
2022-12-06T20:19:06.841Z,92105.86
2022-12-06T20:27:50.185Z,92101.81
2022-12-06T20:36:17.960Z,92121.61
2022-12-06T20:44:39.418Z,92135.92
2022-12-06T21:02:50.435Z,92109.09
2022-12-06T21:11:22.540Z,92127.90
2022-12-06T21:19:45.229Z,92122.41
2022-12-06T21:28:06.683Z,92081.19
2022-12-06T21:36:28.580Z,92044.12
2022-12-06T21:44:50.136Z,92015.14
2022-12-06T21:53:11.559Z,91974.05
2022-12-06T22:01:33.511Z,91914.60
2022-12-06T22:09:55.006Z,91876.06
2022-12-06T22:18:16.592Z,91873.30
2022-12-06T22:26:38.321Z,91871.73
2022-12-06T22:34:59.762Z,91856.28
2022-12-06T22:43:21.296Z,91857.36
2022-12-06T22:51:42.828Z,91868.67
2022-12-06T23:00:05.896Z,91855.90
2022-12-06T23:08:27.468Z,91833.15
2022-12-06T23:16:49.515Z,91832.95
2022-12-06T23:25:10.970Z,91855.10
2022-12-06T23:33:33.519Z,91856.79
2022-12-06T23:41:55.128Z,91858.06
2022-12-06T23:50:16.680Z,91873.65
2022-12-06T23:58:38.668Z,91869.66
